Time;durP1;ratioP1;P1;durP2;ratioP2;P2;SDS_P1;SDS_P2;PMS_P1;PMS_P2;Temp;Humidity;BMP_temperature;BMP_pressure;BME280_temperature;BME280_humidity;BME280_pressure;Samples;Min_cycle;Max_cycle;Signal;HPM_P1;HPM_P2
2023/08/01 00:01:31;;;;;;;0.00;0.00;;;17.30;99.90;;;;;;5002419;28;20033;-88
2023/08/01 00:03:56;;;;;;;0.00;0.00;;;17.40;99.90;;;;;;5008330;28;20049;-89
2023/08/01 00:06:24;;;;;;;0.00;0.00;;;;;;;;;;5013123;28;20375;-89
2023/08/01 00:08:49;;;;;;;0.00;0.00;;;17.50;99.90;;;;;;5003903;28;20035;-89
2023/08/01 00:11:16;;;;;;;0.00;0.00;;;;;;;;;;5000757;28;20390;-87
2023/08/01 00:13:43;;;;;;;0.00;0.00;;;17.40;99.90;;;;;;4999919;28;20554;-88
2023/08/01 00:16:08;;;;;;;0.00;0.00;;;17.40;99.90;;;;;;5012033;28;20029;-89
2023/08/01 00:18:34;;;;;;;0.00;0.00;;;17.40;99.90;;;;;;5008404;28;20022;-89
2023/08/01 00:21:00;;;;;;;0.00;0.00;;;17.40;99.90;;;;;;5009642;28;20271;-89
2023/08/01 00:23:25;;;;;;;0.00;0.00;;;17.50;99.90;;;;;;5005370;28;20038;-89
2023/08/01 00:25:51;;;;;;;0.00;0.00;;;19.50;99.90;;;;;;5009324;28;20482;-88
2023/08/01 00:28:22;;;;;;;0.00;0.00;;;17.40;99.90;;;;;;5007133;28;20018;-88
2023/08/01 00:30:47;;;;;;;0.00;0.00;;;17.40;99.90;;;;;;5011438;28;20028;-90
2023/08/01 00:33:14;;;;;;;0.00;0.00;;;17.30;99.90;;;;;;5013460;28;20120;-89
2023/08/01 00:35:40;;;;;;;0.00;0.00;;;17.40;99.90;;;;;;5013313;28;20315;-91
2023/08/01 00:38:06;;;;;;;0.00;0.00;;;;;;;;;;5006383;28;20026;-90
2023/08/01 00:40:32;;;;;;;0.00;0.00;;;;;;;;;;5013053;28;20125;-90
2023/08/01 00:42:58;;;;;;;0.00;0.00;;;17.40;99.90;;;;;;5012006;28;20032;-89
2023/08/01 00:45:24;;;;;;;0.00;0.00;;;17.30;99.90;;;;;;5012059;28;20022;-89
2023/08/01 00:47:51;;;;;;;0.00;0.00;;;17.30;99.90;;;;;;5012784;28;20501;-90
2023/08/01 00:50:20;;;;;;;0.00;0.00;;;17.30;99.90;;;;;;5013918;28;20037;-89
2023/08/01 00:52:46;;;;;;;0.00;0.00;;;17.30;99.90;;;;;;5015249;28;20491;-89
2023/08/01 00:55:12;;;;;;;0.00;0.00;;;19.30;99.90;;;;;;5021630;28;20042;-90
2023/08/01 00:57:38;;;;;;;0.00;0.00;;;17.10;99.90;;;;;;5002612;28;20084;-89
2023/08/01 01:00:04;;;;;;;0.00;0.00;;;17.10;99.90;;;;;;5010455;28;20395;-88
2023/08/01 01:02:30;;;;;;;0.00;0.00;;;17.10;99.90;;;;;;5011948;28;20092;-89
2023/08/01 01:04:56;;;;;;;0.00;0.00;;;;;;;;;;5014506;28;20431;-89
2023/08/01 01:07:23;;;;;;;0.00;0.00;;;17.10;99.90;;;;;;5010567;28;20149;-89
2023/08/01 01:09:50;;;;;;;0.00;0.00;;;17.10;99.90;;;;;;5005648;28;20022;-89
2023/08/01 01:12:15;;;;;;;0.00;0.00;;;17.10;99.90;;;;;;5014045;28;20061;-88
2023/08/01 01:14:41;;;;;;;0.00;0.00;;;;;;;;;;5014374;28;20525;-88
2023/08/01 01:17:07;;;;;;;0.00;0.00;;;;;;;;;;5012903;28;20026;-88
2023/08/01 01:19:33;;;;;;;0.00;0.00;;;17.00;99.90;;;;;;5004763;28;20030;-88
2023/08/01 01:21:58;;;;;;;0.00;0.00;;;17.00;99.90;;;;;;5011341;28;20044;-88
2023/08/01 01:24:25;;;;;;;0.00;0.00;;;17.00;99.90;;;;;;5022944;28;20025;-88
2023/08/01 01:26:53;;;;;;;0.00;0.00;;;17.00;99.90;;;;;;5004777;28;20081;-88
2023/08/01 01:29:19;;;;;;;0.00;0.00;;;18.40;99.90;;;;;;5006707;28;20357;-87
2023/08/01 01:31:45;;;;;;;0.00;0.00;;;16.90;99.90;;;;;;5011329;28;20038;-88
2023/08/01 01:34:11;;;;;;;0.00;0.00;;;16.90;99.90;;;;;;5011836;28;20041;-88
2023/08/01 01:36:37;;;;;;;0.00;0.00;;;16.90;99.90;;;;;;5017533;28;20032;-88
2023/08/01 01:39:02;;;;;;;0.00;0.00;;;16.90;99.90;;;;;;5019262;28;20442;-87
2023/08/01 01:41:28;;;;;;;0.00;0.00;;;;;;;;;;5011257;28;20069;-89
2023/08/01 01:43:54;;;;;;;0.00;0.00;;;16.80;99.90;;;;;;5008985;28;20034;-87
2023/08/01 01:46:19;;;;;;;0.00;0.00;;;16.70;99.90;;;;;;5019234;28;20025;-87
2023/08/01 01:48:45;;;;;;;0.00;0.00;;;;;;;;;;5010193;28;20022;-86
2023/08/01 01:51:11;;;;;;;0.00;0.00;;;16.70;99.90;;;;;;4999980;28;20037;-88
2023/08/01 01:53:37;;;;;;;0.00;0.00;;;;;;;;;;5007615;28;20019;-89
2023/08/01 01:56:02;;;;;;;0.00;0.00;;;16.70;99.90;;;;;;5005354;28;20037;-87
2023/08/01 01:58:28;;;;;;;0.00;0.00;;;;;;;;;;5009360;28;20084;-87
2023/08/01 02:00:54;;;;;;;0.00;0.00;;;;;;;;;;5006645;28;20021;-88
2023/08/01 02:03:20;;;;;;;0.00;0.00;;;;;;;;;;5006235;28;20025;-89
2023/08/01 02:05:46;;;;;;;0.00;0.00;;;16.70;99.90;;;;;;5003842;28;20400;-88
2023/08/01 02:08:11;;;;;;;0.00;0.00;;;16.70;99.90;;;;;;5006079;28;20446;-86
2023/08/01 02:10:37;;;;;;;0.00;0.00;;;;;;;;;;5006574;28;20379;-88
2023/08/01 02:13:03;;;;;;;0.00;0.00;;;16.70;99.90;;;;;;5001951;28;20535;-87
2023/08/01 02:15:28;;;;;;;0.00;0.00;;;16.70;99.90;;;;;;5003804;28;20034;-87
2023/08/01 02:17:54;;;;;;;0.00;0.00;;;;;;;;;;4998308;28;20037;-86
2023/08/01 02:20:20;;;;;;;0.00;0.00;;;16.70;99.90;;;;;;5004192;28;20026;-87
2023/08/01 02:22:46;;;;;;;0.00;0.00;;;;;;;;;;5005022;28;20021;-86
2023/08/01 02:25:11;;;;;;;0.00;0.00;;;16.50;99.90;;;;;;5007828;28;20036;-86
2023/08/01 02:27:37;;;;;;;0.00;0.00;;;16.50;99.90;;;;;;5009774;28;20021;-86
2023/08/01 02:30:02;;;;;;;0.00;0.00;;;16.50;99.90;;;;;;5004725;28;20029;-88
2023/08/01 02:32:28;;;;;;;0.00;0.00;;;;;;;;;;5002318;28;20418;-86
2023/08/01 02:34:54;;;;;;;0.00;0.00;;;;;;;;;;5007423;28;20029;-88
2023/08/01 02:37:20;;;;;;;0.00;0.00;;;;;;;;;;5007276;28;20438;-89
2023/08/01 02:39:46;;;;;;;0.00;0.00;;;;;;;;;;5004899;28;20376;-87
2023/08/01 02:42:12;;;;;;;0.00;0.00;;;16.60;99.90;;;;;;5008149;28;20134;-87
2023/08/01 02:44:37;;;;;;;0.00;0.00;;;16.60;99.90;;;;;;5008509;28;20475;-86
2023/08/01 02:47:03;;;;;;;0.00;0.00;;;;;;;;;;5003078;28;20036;-87
2023/08/01 02:49:29;;;;;;;0.00;0.00;;;16.60;99.90;;;;;;5005456;28;20510;-86
2023/08/01 02:51:55;;;;;;;0.00;0.00;;;;;;;;;;5006145;28;20023;-87
2023/08/01 02:54:21;;;;;;;0.00;0.00;;;;;;;;;;5011060;28;20127;-87
2023/08/01 02:56:47;;;;;;;0.00;0.00;;;;;;;;;;5002884;28;20053;-87
2023/08/01 02:59:12;;;;;;;0.00;0.00;;;16.50;99.90;;;;;;5009816;28;20045;-86
2023/08/01 03:01:39;;;;;;;0.00;0.00;;;;;;;;;;5002051;28;20030;-86
2023/08/01 03:04:06;;;;;;;0.00;0.00;;;16.50;99.90;;;;;;5007690;28;20030;-87
2023/08/01 03:06:32;;;;;;;0.00;0.00;;;16.50;99.90;;;;;;5007214;28;20045;-86
2023/08/01 03:08:58;;;;;;;0.00;0.00;;;16.50;99.90;;;;;;5006067;28;20034;-86
2023/08/01 03:11:24;;;;;;;0.00;0.00;;;;;;;;;;5004785;28;20087;-87
2023/08/01 03:13:50;;;;;;;0.00;0.00;;;;;;;;;;5001214;28;20751;-87
2023/08/01 03:16:16;;;;;;;0.00;0.00;;;16.50;99.90;;;;;;5004256;28;20028;-86
2023/08/01 03:18:42;;;;;;;0.00;0.00;;;;;;;;;;4994475;28;20387;-86
2023/08/01 03:21:08;;;;;;;0.00;0.00;;;16.50;99.90;;;;;;5006077;28;20018;-87
2023/08/01 03:23:34;;;;;;;0.00;0.00;;;;;;;;;;5011130;28;20022;-87
2023/08/01 03:26:00;;;;;;;0.00;0.00;;;16.50;99.90;;;;;;5002988;28;20472;-86
2023/08/01 03:28:29;;;;;;;0.00;0.00;;;17.30;99.90;;;;;;5008560;28;20022;-87
2023/08/01 03:30:55;;;;;;;0.00;0.00;;;16.40;99.90;;;;;;4998506;28;20022;-86
2023/08/01 03:33:21;;;;;;;0.00;0.00;;;16.40;99.90;;;;;;5011769;28;20045;-86
2023/08/01 03:35:46;;;;;;;0.00;0.00;;;16.50;99.90;;;;;;5003352;28;20022;-87
2023/08/01 03:38:12;;;;;;;0.00;0.00;;;;;;;;;;5008268;28;20042;-87
2023/08/01 03:40:38;;;;;;;0.00;0.00;;;16.40;99.90;;;;;;5011407;28;20113;-87
2023/08/01 03:43:04;;;;;;;0.00;0.00;;;16.30;99.90;;;;;;5006866;28;20113;-88
2023/08/01 03:45:30;;;;;;;0.00;0.00;;;16.30;99.90;;;;;;5006410;28;20029;-87
2023/08/01 03:47:56;;;;;;;0.00;0.00;;;;;;;;;;5004067;28;20021;-87
2023/08/01 03:50:21;;;;;;;0.00;0.00;;;16.30;99.90;;;;;;5003565;28;20077;-88
2023/08/01 03:52:47;;;;;;;0.00;0.00;;;16.40;99.90;;;;;;4999870;28;20022;-86
2023/08/01 03:55:13;;;;;;;0.00;0.00;;;16.40;99.90;;;;;;5007916;28;20053;-86
2023/08/01 03:57:38;;;;;;;0.00;0.00;;;;;;;;;;5007055;28;20060;-87
2023/08/01 04:00:06;;;;;;;0.00;0.00;;;16.30;99.90;;;;;;5005570;28;20623;-88
2023/08/01 04:02:32;;;;;;;0.00;0.00;;;16.40;99.90;;;;;;5010134;28;20026;-88
2023/08/01 04:04:58;;;;;;;0.00;0.00;;;16.30;99.90;;;;;;5010877;28;20040;-87
2023/08/01 04:07:23;;;;;;;0.00;0.00;;;16.70;99.90;;;;;;5010381;28;20014;-87
2023/08/01 04:09:49;;;;;;;0.00;0.00;;;;;;;;;;5009154;28;20072;-88
2023/08/01 04:12:15;;;;;;;0.00;0.00;;;16.30;99.90;;;;;;5003691;28;20062;-87
2023/08/01 04:14:41;;;;;;;0.00;0.00;;;16.30;99.90;;;;;;5001767;28;20064;-88
2023/08/01 04:17:07;;;;;;;0.00;0.00;;;;;;;;;;5006498;28;20058;-87
2023/08/01 04:19:32;;;;;;;0.00;0.00;;;16.20;99.90;;;;;;5008371;28;20109;-87
2023/08/01 04:21:58;;;;;;;0.00;0.00;;;;;;;;;;5003213;28;20050;-87
2023/08/01 04:24:27;;;;;;;0.00;0.00;;;16.30;99.90;;;;;;5006339;28;20083;-86
2023/08/01 04:26:53;;;;;;;0.00;0.00;;;;;;;;;;5000201;28;20029;-87
2023/08/01 04:29:19;;;;;;;0.00;0.00;;;16.30;99.90;;;;;;5006003;28;20030;-87
2023/08/01 04:31:45;;;;;;;0.00;0.00;;;;;;;;;;5006361;28;20033;-87
2023/08/01 04:34:11;;;;;;;0.00;0.00;;;;;;;;;;5009434;28;20038;-86
2023/08/01 04:36:37;;;;;;;0.00;0.00;;;16.40;99.90;;;;;;5002206;28;20088;-87
2023/08/01 04:39:02;;;;;;;0.00;0.00;;;;;;;;;;5006691;28;20026;-87
2023/08/01 04:41:28;;;;;;;0.00;0.00;;;16.40;99.90;;;;;;5009778;28;20026;-87
2023/08/01 04:43:54;;;;;;;0.00;0.00;;;;;;;;;;5010201;28;20050;-87
2023/08/01 04:46:19;;;;;;;0.00;0.00;;;16.40;99.90;;;;;;5005022;28;20121;-88
2023/08/01 04:48:45;;;;;;;0.00;0.00;;;;;;;;;;5008256;28;20620;-86
2023/08/01 04:51:11;;;;;;;0.00;0.00;;;16.50;99.90;;;;;;5009924;28;20054;-87
2023/08/01 04:53:36;;;;;;;0.00;0.00;;;16.50;99.90;;;;;;5010944;28;20088;-88
2023/08/01 04:56:02;;;;;;;0.00;0.00;;;16.60;99.90;;;;;;5010984;28;20052;-88
2023/08/01 04:58:30;;;;;;;0.00;0.00;;;;;;;;;;5008557;28;20058;-86
2023/08/01 05:00:55;;;;;;;0.00;0.00;;;16.60;99.90;;;;;;5009984;28;20026;-87
2023/08/01 05:03:21;;;;;;;0.00;0.00;;;16.50;99.90;;;;;;5008328;28;20566;-87
2023/08/01 05:05:47;;;;;;;0.00;0.00;;;;;;;;;;5013815;28;20041;-87
2023/08/01 05:08:13;;;;;;;0.00;0.00;;;;;;;;;;5013125;28;20025;-86
2023/08/01 05:10:38;;;;;;;0.00;0.00;;;16.70;99.90;;;;;;5003636;28;20029;-87
2023/08/01 05:13:06;;;;;;;0.00;0.00;;;16.60;99.90;;;;;;5009974;28;20022;-86
2023/08/01 05:15:32;;;;;;;0.00;0.00;;;16.70;99.90;;;;;;5008875;28;20054;-87
2023/08/01 05:17:57;;;;;;;0.00;0.00;;;16.70;99.90;;;;;;5003946;28;20053;-87
2023/08/01 05:20:23;;;;;;;0.00;0.00;;;;;;;;;;5009895;28;20437;-86
2023/08/01 05:22:48;;;;;;;0.00;0.00;;;16.70;99.90;;;;;;5004843;28;20041;-86
2023/08/01 05:25:17;;;;;;;0.00;0.00;;;16.70;99.90;;;;;;5008165;28;20480;-88
2023/08/01 05:27:44;;;;;;;0.00;0.00;;;16.70;99.90;;;;;;5011366;28;20021;-88
2023/08/01 05:30:10;;;;;;;0.00;0.00;;;16.80;99.90;;;;;;5017742;28;20022;-88
2023/08/01 05:32:36;;;;;;;0.00;0.00;;;16.90;99.90;;;;;;5002607;28;20063;-87
2023/08/01 05:35:02;;;;;;;0.00;0.00;;;17.00;99.90;;;;;;5008088;28;20026;-88
2023/08/01 05:37:28;;;;;;;0.00;0.00;;;;;;;;;;5006965;28;20048;-88
2023/08/01 05:39:54;;;;;;;0.00;0.00;;;;;;;;;;5008015;28;20026;-86
2023/08/01 05:42:19;;;;;;;0.00;0.00;;;17.10;99.90;;;;;;5008115;28;20030;-88
2023/08/01 05:44:45;;;;;;;0.00;0.00;;;17.00;99.90;;;;;;5002504;28;20361;-85
2023/08/01 05:47:11;;;;;;;0.00;0.00;;;;;;;;;;5004622;28;20021;-85
2023/08/01 05:49:36;;;;;;;0.00;0.00;;;17.20;99.90;;;;;;5007838;28;20026;-86
2023/08/01 05:52:02;;;;;;;0.00;0.00;;;17.20;99.90;;;;;;5009437;28;20132;-85
2023/08/01 05:54:28;;;;;;;0.00;0.00;;;;;;;;;;5010675;28;20209;-88
2023/08/01 05:56:54;;;;;;;0.00;0.00;;;17.30;99.90;;;;;;5004102;28;20042;-88
2023/08/01 05:59:20;;;;;;;0.00;0.00;;;;;;;;;;5003803;28;20088;-88
2023/08/01 06:01:46;;;;;;;0.00;0.00;;;;;;;;;;5009006;28;20029;-88
2023/08/01 06:04:11;;;;;;;0.00;0.00;;;17.40;99.90;;;;;;5005585;28;20036;-89
2023/08/01 06:06:37;;;;;;;0.00;0.00;;;;;;;;;;5004845;28;20387;-88
2023/08/01 06:09:03;;;;;;;0.00;0.00;;;;;;;;;;5009189;28;20108;-88
2023/08/01 06:11:29;;;;;;;0.00;0.00;;;;;;;;;;5007962;28;20021;-87
2023/08/01 06:13:55;;;;;;;0.00;0.00;;;;;;;;;;5005474;28;20529;-90
2023/08/01 06:16:21;;;;;;;0.00;0.00;;;17.50;99.90;;;;;;5008616;28;20224;-89
2023/08/01 06:18:46;;;;;;;0.00;0.00;;;17.50;99.90;;;;;;5005570;28;20022;-89
2023/08/01 06:21:12;;;;;;;0.00;0.00;;;;;;;;;;5001194;28;20038;-88
2023/08/01 06:23:38;;;;;;;0.00;0.00;;;17.40;99.90;;;;;;5013236;28;20049;-89
2023/08/01 06:26:03;;;;;;;0.00;0.00;;;17.40;99.90;;;;;;5005819;28;20096;-89
2023/08/01 06:28:29;;;;;;;0.00;0.00;;;;;;;;;;5009560;28;20399;-90
2023/08/01 06:30:55;;;;;;;0.00;0.00;;;17.50;99.90;;;;;;5009968;28;20040;-90
2023/08/01 06:33:21;;;;;;;0.00;0.00;;;17.40;99.90;;;;;;5012481;28;20361;-89
2023/08/01 06:35:47;;;;;;;0.00;0.00;;;17.30;99.90;;;;;;5007069;28;20022;-89
2023/08/01 06:38:13;;;;;;;0.00;0.00;;;;;;;;;;5008606;28;20065;-88
2023/08/01 06:40:38;;;;;;;0.00;0.00;;;;;;;;;;5006429;28;20056;-89
2023/08/01 06:43:04;;;;;;;0.00;0.00;;;;;;;;;;5003287;28;20037;-90
2023/08/01 06:45:30;;;;;;;0.00;0.00;;;;;;;;;;5009351;28;20094;-90
2023/08/01 06:47:56;;;;;;;0.00;0.00;;;17.40;99.90;;;;;;5006551;28;20511;-89
2023/08/01 06:50:21;;;;;;;0.00;0.00;;;17.40;99.90;;;;;;5011795;28;20487;-89
2023/08/01 06:52:47;;;;;;;0.00;0.00;;;;;;;;;;5007088;28;20058;-88
2023/08/01 06:55:13;;;;;;;0.00;0.00;;;;;;;;;;5011449;28;20517;-89
2023/08/01 06:57:39;;;;;;;0.00;0.00;;;17.90;99.90;;;;;;5001141;28;20057;-88
2023/08/01 07:00:06;;;;;;;0.00;0.00;;;18.00;99.90;;;;;;5007169;28;20033;-89
2023/08/01 07:02:31;;;;;;;0.00;0.00;;;18.30;99.90;;;;;;5010148;28;20033;-90
2023/08/01 07:04:57;;;;;;;0.00;0.00;;;;;;;;;;5006725;28;20562;-89
2023/08/01 07:07:23;;;;;;;0.00;0.00;;;18.30;99.90;;;;;;5009000;28;20283;-90
2023/08/01 07:09:48;;;;;;;0.00;0.00;;;18.50;99.90;;;;;;4998927;28;20471;-88
2023/08/01 07:12:14;;;;;;;0.00;0.00;;;;;;;;;;4996548;28;20113;-89
2023/08/01 07:14:40;;;;;;;0.00;0.00;;;18.80;99.90;;;;;;5007779;28;20029;-90
2023/08/01 07:17:05;;;;;;;0.00;0.00;;;18.70;99.90;;;;;;5010406;28;20025;-87
2023/08/01 07:19:31;;;;;;;0.00;0.00;;;;;;;;;;5012732;28;20022;-90
2023/08/01 07:21:57;;;;;;;0.00;0.00;;;;;;;;;;5003778;28;20034;-90
2023/08/01 07:24:23;;;;;;;0.00;0.00;;;;;;;;;;5003349;28;20022;-88
2023/08/01 07:26:49;;;;;;;0.00;0.00;;;18.90;99.90;;;;;;5002594;28;20040;-90
2023/08/01 07:29:15;;;;;;;0.00;0.00;;;18.60;99.90;;;;;;5006535;28;20547;-89
2023/08/01 07:31:41;;;;;;;0.00;0.00;;;18.50;99.90;;;;;;5002250;28;20125;-88
2023/08/01 07:34:07;;;;;;;0.00;0.00;;;18.50;99.90;;;;;;5005196;28;20030;-89
2023/08/01 07:36:36;;;;;;;0.00;0.00;;;;;;;;;;5007902;28;20033;-87
2023/08/01 07:39:03;;;;;;;0.00;0.00;;;;;;;;;;5013290;28;20021;-88
2023/08/01 07:41:28;;;;;;;0.00;0.00;;;18.20;99.90;;;;;;4999788;28;20023;-87
2023/08/01 07:43:54;;;;;;;0.00;0.00;;;;;;;;;;5005976;28;20053;-88
2023/08/01 07:46:20;;;;;;;0.00;0.00;;;;;;;;;;5000659;28;20027;-89
2023/08/01 07:48:46;;;;;;;0.00;0.00;;;;;;;;;;5010095;28;20026;-89
2023/08/01 07:51:18;;;;;;;0.00;0.00;;;18.40;99.90;;;;;;5005013;28;20036;-89
2023/08/01 07:53:44;;;;;;;0.00;0.00;;;;;;;;;;5007000;28;20026;-89
2023/08/01 07:56:10;;;;;;;0.00;0.00;;;;;;;;;;5010314;28;20443;-88
2023/08/01 07:58:36;;;;;;;0.00;0.00;;;;;;;;;;5010148;28;20029;-89
2023/08/01 08:01:08;;;;;;;0.00;0.00;;;19.20;99.90;;;;;;5004665;28;20029;-91
2023/08/01 08:03:34;;;;;;;0.00;0.00;;;;;;;;;;5012576;28;20048;-90
2023/08/01 08:06:00;;;;;;;0.00;0.00;;;;;;;;;;5010213;28;20085;-90
2023/08/01 08:08:26;;;;;;;0.00;0.00;;;;;;;;;;5014178;28;20026;-90
2023/08/01 08:10:52;;;;;;;0.00;0.00;;;;;;;;;;4999953;28;20025;-90
2023/08/01 08:13:18;;;;;;;0.00;0.00;;;19.00;99.90;;;;;;5004734;28;20034;-90
2023/08/01 08:15:44;;;;;;;0.00;0.00;;;;;;;;;;5013137;28;20525;-91
2023/08/01 08:18:10;;;;;;;0.00;0.00;;;;;;;;;;5008326;28;20041;-90
2023/08/01 08:20:42;;;;;;;0.00;0.00;;;20.20;99.90;;;;;;5012626;28;20094;-90
2023/08/01 08:23:08;;;;;;;0.00;0.00;;;20.40;99.90;;;;;;5012497;28;20055;-90
2023/08/01 08:25:34;;;;;;;0.00;0.00;;;;;;;;;;5011712;28;20018;-89
2023/08/01 08:28:06;;;;;;;0.00;0.00;;;20.30;99.90;;;;;;5007896;28;20022;-90
2023/08/01 08:30:32;;;;;;;0.00;0.00;;;;;;;;;;5008305;28;20072;-90
2023/08/01 08:33:00;;;;;;;0.00;0.00;;;20.00;99.90;;;;;;5016751;28;20022;-88
2023/08/01 08:35:25;;;;;;;0.00;0.00;;;19.60;99.90;;;;;;5012931;28;20445;-91
2023/08/01 08:37:54;;;;;;;0.00;0.00;;;;;;;;;;5011573;28;20030;-91
2023/08/01 08:40:19;;;;;;;0.00;0.00;;;19.50;99.90;;;;;;5013762;28;20034;-90
2023/08/01 08:42:54;;;;;;;0.00;0.00;;;19.30;99.90;;;;;;5015451;28;20374;-91
2023/08/01 08:45:20;;;;;;;0.00;0.00;;;;;;;;;;5020316;28;20386;-91
2023/08/01 08:47:56;;;;;;;0.00;0.00;;;19.30;99.90;;;;;;5002855;28;20014;-89
2023/08/01 08:50:22;;;;;;;0.00;0.00;;;18.90;99.90;;;;;;5009880;28;20109;-91
2023/08/01 08:52:48;;;;;;;0.00;0.00;;;20.60;99.90;;;;;;5005094;28;20538;-89
2023/08/01 08:55:14;;;;;;;0.00;0.00;;;;;;;;;;5014124;28;20125;-92
2023/08/01 08:57:40;;;;;;;0.00;0.00;;;19.80;99.90;;;;;;5013980;28;20037;-91
2023/08/01 09:00:06;;;;;;;0.00;0.00;;;22.10;99.90;;;;;;5011488;28;20030;-93
2023/08/01 09:02:32;;;;;;;0.00;0.00;;;20.30;99.90;;;;;;5012262;28;20091;-92
2023/08/01 09:04:58;;;;;;;0.00;0.00;;;20.70;99.90;;;;;;5018906;28;20025;-90
2023/08/01 09:07:29;;;;;;;0.00;0.00;;;21.00;99.90;;;;;;5011985;28;20026;-92
2023/08/01 09:09:55;;;;;;;0.00;0.00;;;20.90;99.90;;;;;;5006385;28;20026;-92
2023/08/01 09:12:21;;;;;;;0.00;0.00;;;21.00;99.90;;;;;;5001496;28;20619;-91
2023/08/01 09:14:50;;;;;;;0.00;0.00;;;22.10;99.90;;;;;;5016964;28;20026;-91
2023/08/01 09:17:18;;;;;;;0.00;0.00;;;;;;;;;;5020638;28;20044;-91
2023/08/01 09:19:44;;;;;;;0.00;0.00;;;20.70;99.90;;;;;;5004180;28;20375;-90
2023/08/01 09:22:14;;;;;;;0.00;0.00;;;22.50;99.90;;;;;;5003216;28;20054;-91
2023/08/01 09:24:51;;;;;;;0.00;0.00;;;21.00;99.90;;;;;;5012197;28;20029;-92
2023/08/01 09:27:16;;;;;;;0.00;0.00;;;21.00;99.90;;;;;;5013696;28;20034;-90
2023/08/01 09:29:42;;;;;;;0.00;0.00;;;21.10;99.90;;;;;;5005963;28;20041;-91
2023/08/01 09:32:13;;;;;;;0.00;0.00;;;21.00;99.90;;;;;;5014319;28;20049;-91
2023/08/01 09:34:38;;;;;;;0.00;0.00;;;21.00;99.90;;;;;;5010460;28;20032;-89
2023/08/01 09:37:04;;;;;;;0.00;0.00;;;20.80;99.90;;;;;;5005782;28;20034;-88
2023/08/01 09:39:30;;;;;;;0.00;0.00;;;20.50;99.90;;;;;;5004479;28;20122;-90
2023/08/01 09:41:57;;;;;;;0.00;0.00;;;20.60;99.90;;;;;;5007377;28;20029;-92
2023/08/01 09:44:23;;;;;;;0.00;0.00;;;20.50;99.90;;;;;;5010139;28;20021;-92
2023/08/01 09:47:04;;;;;;;0.00;0.00;;;20.80;99.90;;;;;;5011007;28;20049;-92
2023/08/01 09:49:30;;;;;;;0.00;0.00;;;20.70;99.90;;;;;;5002346;28;20487;-91
2023/08/01 09:51:57;;;;;;;0.00;0.00;;;20.90;99.90;;;;;;5011317;28;20065;-89
2023/08/01 09:54:23;;;;;;;0.00;0.00;;;;;;;;;;5005384;28;20038;-90
2023/08/01 09:56:51;;;;;;;0.00;0.00;;;20.60;99.90;;;;;;5006680;28;20034;-91
2023/08/01 09:59:23;;;;;;;0.00;0.00;;;21.30;99.90;;;;;;5001307;28;20029;-89
2023/08/01 10:01:50;;;;;;;0.00;0.00;;;21.50;99.90;;;;;;5000591;28;20455;-91
2023/08/01 10:04:23;;;;;;;0.00;0.00;;;21.10;99.90;;;;;;5004560;28;20022;-91
2023/08/01 10:06:57;;;;;;;0.00;0.00;;;21.20;99.90;;;;;;5003714;28;20029;-91
2023/08/01 10:09:23;;;;;;;0.00;0.00;;;21.50;99.90;;;;;;5006328;28;20027;-89
2023/08/01 10:11:51;;;;;;;0.00;0.00;;;21.50;99.90;;;;;;4998135;28;20035;-89
2023/08/01 10:14:17;;;;;;;0.00;0.00;;;21.60;99.90;;;;;;5013218;28;20606;-89
2023/08/01 10:16:47;;;;;;;0.00;0.00;;;21.50;99.90;;;;;;5003011;28;20037;-91
2023/08/01 10:19:15;;;;;;;0.00;0.00;;;;;;;;;;5014557;28;20026;-94
2023/08/01 10:21:44;;;;;;;0.00;0.00;;;21.30;99.90;;;;;;5012893;28;20084;-90
2023/08/01 10:24:12;;;;;;;0.00;0.00;;;21.20;99.90;;;;;;5007592;28;20033;-89
2023/08/01 10:26:38;;;;;;;0.00;0.00;;;21.10;99.90;;;;;;5002430;28;20030;-91
2023/08/01 10:29:04;;;;;;;0.00;0.00;;;;;;;;;;5006443;28;20495;-90
2023/08/01 10:31:29;;;;;;;0.00;0.00;;;20.90;99.90;;;;;;5010914;28;20054;-90
2023/08/01 10:34:05;;;;;;;0.00;0.00;;;20.40;99.90;;;;;;5003997;28;20036;-90
2023/08/01 10:36:32;;;;;;;0.00;0.00;;;20.30;99.90;;;;;;5006312;28;20087;-89
2023/08/01 10:38:59;;;;;;;0.00;0.00;;;21.40;99.90;;;;;;5007984;28;20022;-91
2023/08/01 10:41:25;;;;;;;0.00;0.00;;;20.40;99.90;;;;;;5006134;28;20072;-90
2023/08/01 10:43:50;;;;;;;0.00;0.00;;;20.70;99.90;;;;;;5008833;28;20578;-91
2023/08/01 10:46:16;;;;;;;0.00;0.00;;;;;;;;;;5011070;28;20057;-91
2023/08/01 10:48:52;;;;;;;0.00;0.00;;;20.50;99.90;;;;;;5005291;28;20109;-91
2023/08/01 10:51:17;;;;;;;0.00;0.00;;;20.60;99.90;;;;;;4994241;28;20058;-89
2023/08/01 10:53:43;;;;;;;0.00;0.00;;;20.40;99.90;;;;;;4997088;28;20029;-89
2023/08/01 10:56:16;;;;;;;0.00;0.00;;;20.60;99.90;;;;;;4989691;28;20037;-91
2023/08/01 10:58:41;;;;;;;0.00;0.00;;;20.80;99.90;;;;;;5017992;28;20088;-90
2023/08/01 11:01:07;;;;;;;0.00;0.00;;;;;;;;;;5028073;28;20030;-91
2023/08/01 11:03:40;;;;;;;0.00;0.00;;;21.30;99.90;;;;;;5012001;28;20471;-90
2023/08/01 11:06:05;;;;;;;0.00;0.00;;;21.40;99.90;;;;;;5012782;28;20022;-91
2023/08/01 11:08:40;;;;;;;0.00;0.00;;;21.40;99.90;;;;;;5004667;28;20096;-90
2023/08/01 11:11:10;;;;;;;0.00;0.00;;;21.30;99.90;;;;;;5012558;28;20014;-91
2023/08/01 11:13:36;;;;;;;0.00;0.00;;;21.40;99.90;;;;;;5006239;28;20041;-90
2023/08/01 11:16:06;;;;;;;0.00;0.00;;;22.20;99.90;;;;;;5000279;28;20038;-90
2023/08/01 11:18:44;;;;;;;0.00;0.00;;;22.50;99.90;;;;;;5012851;28;20038;-90
2023/08/01 11:21:10;;;;;;;0.00;0.00;;;;;;;;;;5006387;28;20366;-92
2023/08/01 11:23:36;;;;;;;0.00;0.00;;;;;;;;;;5011174;28;20034;-90
2023/08/01 11:49:18;;;;;;;0.00;0.00;;;20.70;99.90;;;;;;5005343;28;20065;-90
2023/08/01 11:51:44;;;;;;;0.00;0.00;;;20.70;99.90;;;;;;5005243;28;20026;-91
2023/08/01 16:18:18;;;;;;;0.00;0.00;;;;;;;;;;5006924;28;20042;-90
2023/08/01 16:20:44;;;;;;;0.00;0.00;;;20.60;99.90;;;;;;5007938;28;20046;-90
2023/08/01 16:23:10;;;;;;;0.00;0.00;;;;;;;;;;5012694;28;20443;-91
2023/08/01 16:25:36;;;;;;;0.00;0.00;;;;;;;;;;5015660;28;20018;-92
2023/08/01 20:08:41;;;;;;;0.00;0.00;;;17.30;99.90;;;;;;5026872;28;20490;-90
2023/08/01 20:11:07;;;;;;;0.00;0.00;;;17.20;99.90;;;;;;5028188;28;20490;-88
2023/08/01 20:13:33;;;;;;;0.00;0.00;;;;;;;;;;5022613;28;20041;-90
2023/08/01 20:15:59;;;;;;;0.00;0.00;;;17.20;99.90;;;;;;5011809;28;20033;-89
2023/08/01 20:18:25;;;;;;;0.00;0.00;;;17.20;99.90;;;;;;5011655;28;20529;-91
2023/08/01 20:20:52;;;;;;;0.00;0.00;;;17.20;99.90;;;;;;5011780;28;20022;-89
2023/08/01 20:23:17;;;;;;;0.00;0.00;;;17.40;99.90;;;;;;5001058;28;20510;-90
2023/08/01 20:25:43;;;;;;;0.00;0.00;;;18.20;99.90;;;;;;5002347;28;20014;-89
2023/08/01 20:28:09;;;;;;;0.00;0.00;;;;;;;;;;5005010;28;20019;-89
2023/08/01 20:30:36;;;;;;;0.00;0.00;;;;;;;;;;4998185;28;20076;-90
2023/08/01 20:33:02;;;;;;;0.00;0.00;;;17.20;99.90;;;;;;5006272;28;20065;-88
2023/08/01 20:35:28;;;;;;;0.00;0.00;;;17.10;99.90;;;;;;5008967;28;20580;-90
2023/08/01 20:37:54;;;;;;;0.00;0.00;;;;;;;;;;5012124;28;20038;-88
2023/08/01 20:40:20;;;;;;;0.00;0.00;;;17.00;99.90;;;;;;5013582;28;20398;-88
2023/08/01 20:42:47;;;;;;;0.00;0.00;;;;;;;;;;5013761;28;20029;-89
2023/08/01 20:45:13;;;;;;;0.00;0.00;;;17.00;99.90;;;;;;5016210;28;20026;-88
2023/08/01 20:47:38;;;;;;;0.00;0.00;;;17.10;99.90;;;;;;5012676;28;20066;-88
2023/08/01 20:50:05;;;;;;;0.00;0.00;;;16.90;99.90;;;;;;5011106;28;20092;-88
2023/08/01 20:52:30;;;;;;;0.00;0.00;;;17.00;99.90;;;;;;5008709;28;20053;-89
2023/08/01 20:54:56;;;;;;;0.00;0.00;;;;;;;;;;5005414;28;20371;-90
2023/08/01 20:57:22;;;;;;;0.00;0.00;;;;;;;;;;5016371;28;20025;-90
2023/08/01 20:59:48;;;;;;;0.00;0.00;;;16.90;99.90;;;;;;5005282;28;20033;-89
2023/08/01 21:02:13;;;;;;;0.00;0.00;;;16.90;99.90;;;;;;5010225;28;20022;-89
2023/08/01 21:04:39;;;;;;;0.00;0.00;;;;;;;;;;5010221;28;20026;-88
2023/08/01 21:07:06;;;;;;;0.00;0.00;;;17.10;99.90;;;;;;5003148;28;20476;-87
2023/08/01 21:09:32;;;;;;;0.00;0.00;;;17.30;99.90;;;;;;5008711;28;20475;-90
2023/08/01 21:11:58;;;;;;;0.00;0.00;;;;;;;;;;5002457;28;20076;-89
2023/08/01 21:14:23;;;;;;;0.00;0.00;;;17.20;99.90;;;;;;5009583;28;20065;-89
2023/08/01 21:16:51;;;;;;;0.00;0.00;;;17.10;99.90;;;;;;5021097;28;20060;-89
2023/08/01 21:19:17;;;;;;;0.00;0.00;;;17.20;99.90;;;;;;5009687;28;20056;-92
2023/08/01 21:21:43;;;;;;;0.00;0.00;;;;;;;;;;5011703;28;20479;-90
2023/08/01 21:24:08;;;;;;;0.00;0.00;;;17.00;99.90;;;;;;5002560;28;20034;-87
2023/08/01 21:26:34;;;;;;;0.00;0.00;;;;;;;;;;4999627;28;20395;-88
2023/08/01 21:29:02;;;;;;;0.00;0.00;;;16.90;99.90;;;;;;5011545;28;20023;-89
2023/08/01 21:31:27;;;;;;;0.00;0.00;;;16.90;99.90;;;;;;5010991;28;20026;-89
2023/08/01 21:33:53;;;;;;;0.00;0.00;;;;;;;;;;5012693;28;20052;-88
2023/08/01 21:36:19;;;;;;;0.00;0.00;;;;;;;;;;5013757;28;20032;-88
2023/08/01 21:38:45;;;;;;;0.00;0.00;;;;;;;;;;5015511;28;20120;-89
2023/08/01 21:41:17;;;;;;;0.00;0.00;;;16.90;99.90;;;;;;5008962;28;20090;-88
2023/08/01 21:43:43;;;;;;;0.00;0.00;;;16.80;99.90;;;;;;5018933;28;20439;-89
2023/08/01 21:46:09;;;;;;;0.00;0.00;;;17.60;99.90;;;;;;5008970;28;20090;-88